LEMH Airport Information

Runway Information
Runway 01L Length 7710 ft width 148 ft
Elevation 277 ft Threshold 0 ft Heading 9
Runway 19R Length 7710 ft Width 148 ft
Elevation 298 ft Threshold 0 ft Heading 189
Runway 01R Length 6890 ft width 148 ft
Elevation 272 ft Threshold 0 ft Heading 9
Runway 19L Length 6890 ft Width 148 ft
Elevation 298 ft Threshold 0 ft Heading 189
Airport Frequencies
Type APP Name APP Frequency 119.65 MHZ
Type ATIS Name ATIS Frequency 112.6 MHZ
Type GND Name GND Frequency 121.75 MHZ
Type TWR Name TWR Frequency 118.2 MHZ
Airport Navaids
Type VOR-DME Name Menorca Frequency 112600 KHZ
Type NDB Name Menorca Frequency 344 KHZ
Airport Weather Information & NOTAM
ADDS - METARS form results

(0748 UTC 16 December 2018)
Data provider http://aviationweather.gov/metar/data/
 
METAR text: LEMH 160730Z 26007KT 230V290 CAVOK 14/13 Q1017
Conditions at: LEMH (MAHON/MENORCA IS, ES) observed 0730 UTC 16 December 2018
Temperature: 14.0°C (57°F)
Dewpoint: 13.0°C (55°F) [RH = 94%]
Pressure (altimeter): 30.03 inches Hg (1017.0 mb)
Winds: from the W (260 degrees) at 8 MPH (7 knots; 3.6 m/s)
Visibility: 6 or more miles (10+ km)
Ceiling: ceiling and visibility are OK
Clouds: unknown
Weather: no significant weather observed at this time

METAR text: LEMH 160700Z 26007KT 230V290 CAVOK 14/12 Q1017
Conditions at: LEMH (MAHON/MENORCA IS, ES) observed 0700 UTC 16 December 2018
Temperature: 14.0°C (57°F)
Dewpoint: 12.0°C (54°F) [RH = 88%]
Pressure (altimeter): 30.03 inches Hg (1017.0 mb)
Winds: from the W (260 degrees) at 8 MPH (7 knots; 3.6 m/s)
Visibility: 6 or more miles (10+ km)
Ceiling: ceiling and visibility are OK
Clouds: unknown
Weather: no significant weather observed at this time

Forecast for: LEMH (MAHON/MENORCA IS, ES)
Text: TAF LEMH 160200Z 1603/1703 25010KT 9999 FEW020 TX16/1612Z TN11/1606Z
Forecast period: 0300 to 1400 UTC 16 December 2018
Forecast type: FROM: standard forecast or significant change
Winds: from the WSW (250 degrees) at 12 MPH (10 knots; 5.1 m/s)
Visibility: 6 or more miles 10+ km)
Ceiling: at least 12,000 feet AGL
Clouds: few clouds at 2000 feet AGL
Weather: no significant weather forecast for this period
Text: TEMPO 1611/1614 25015KT
Forecast period: 1100 to 1400 UTC 16 December 2018
Forecast type: TEMPORARY: The following changes expected for less than half the time period
Winds: from the WSW (250 degrees) at 17 MPH (15 knots; 7.7 m/s)
Visibility: missing
Ceiling: unknown
Clouds: missing
Weather: no significant weather forecast for this period
Text: BECMG 1614/1616 28013KT
Forecast period: 1400 UTC 16 December 2018 to 0300 UTC 17 December 2018
Forecast type: BECOMING: Conditions expected to become as follows by 1600 UTC 16 December 2018
Winds: from the W (280 degrees) at 15 MPH (13 knots; 6.7 m/s)
Visibility: 6 or more miles 10+ km)
Ceiling: at least 12,000 feet AGL
Clouds: few clouds at 2000 feet AGL
Weather: no significant weather forecast for this period